sensor_id;sensor_type;location;lat;lon;timestamp;P1;durP1;ratioP1;P2;durP2;ratioP2
17283;SDS011;8760;52.248;20.952;2024-02-14T00:00:07;11.83;;;5.90;;
17283;SDS011;8760;52.248;20.952;2024-02-14T00:02:38;10.40;;;5.57;;
17283;SDS011;8760;52.248;20.952;2024-02-14T00:05:05;9.80;;;5.53;;
17283;SDS011;8760;52.248;20.952;2024-02-14T00:07:33;10.33;;;5.57;;
17283;SDS011;8760;52.248;20.952;2024-02-14T00:10:00;10.30;;;5.57;;
17283;SDS011;8760;52.248;20.952;2024-02-14T00:12:28;12.23;;;6.33;;
17283;SDS011;8760;52.248;20.952;2024-02-14T00:14:55;12.10;;;6.07;;
17283;SDS011;8760;52.248;20.952;2024-02-14T00:17:22;12.07;;;5.93;;
17283;SDS011;8760;52.248;20.952;2024-02-14T00:19:50;12.60;;;6.37;;
17283;SDS011;8760;52.248;20.952;2024-02-14T00:22:17;13.73;;;6.20;;
17283;SDS011;8760;52.248;20.952;2024-02-14T00:24:44;11.00;;;6.10;;
17283;SDS011;8760;52.248;20.952;2024-02-14T00:27:11;10.93;;;5.80;;
17283;SDS011;8760;52.248;20.952;2024-02-14T00:29:40;11.73;;;6.40;;
17283;SDS011;8760;52.248;20.952;2024-02-14T00:32:10;10.73;;;6.37;;
17283;SDS011;8760;52.248;20.952;2024-02-14T00:34:38;9.90;;;5.77;;
17283;SDS011;8760;52.248;20.952;2024-02-14T00:37:05;12.03;;;6.17;;
17283;SDS011;8760;52.248;20.952;2024-02-14T00:39:32;15.10;;;7.37;;
17283;SDS011;8760;52.248;20.952;2024-02-14T00:41:59;17.57;;;8.33;;
17283;SDS011;8760;52.248;20.952;2024-02-14T00:44:25;14.37;;;8.63;;
17283;SDS011;8760;52.248;20.952;2024-02-14T00:46:56;13.53;;;8.30;;
17283;SDS011;8760;52.248;20.952;2024-02-14T00:49:24;12.67;;;7.70;;
17283;SDS011;8760;52.248;20.952;2024-02-14T00:51:51;15.50;;;7.67;;
17283;SDS011;8760;52.248;20.952;2024-02-14T00:54:18;16.50;;;7.33;;
17283;SDS011;8760;52.248;20.952;2024-02-14T00:56:45;11.83;;;7.23;;
17283;SDS011;8760;52.248;20.952;2024-02-14T00:59:12;13.33;;;7.50;;
17283;SDS011;8760;52.248;20.952;2024-02-14T01:01:39;11.43;;;6.30;;
17283;SDS011;8760;52.248;20.952;2024-02-14T01:04:07;14.00;;;6.80;;
17283;SDS011;8760;52.248;20.952;2024-02-14T01:06:34;13.80;;;7.17;;
17283;SDS011;8760;52.248;20.952;2024-02-14T01:09:01;11.77;;;7.27;;
17283;SDS011;8760;52.248;20.952;2024-02-14T01:11:28;10.17;;;6.30;;
17283;SDS011;8760;52.248;20.952;2024-02-14T01:13:55;13.60;;;7.60;;
17283;SDS011;8760;52.248;20.952;2024-02-14T01:16:23;13.70;;;7.23;;
17283;SDS011;8760;52.248;20.952;2024-02-14T01:18:50;14.53;;;7.33;;
17283;SDS011;8760;52.248;20.952;2024-02-14T01:21:19;16.53;;;8.00;;
17283;SDS011;8760;52.248;20.952;2024-02-14T01:23:46;15.50;;;6.77;;
17283;SDS011;8760;52.248;20.952;2024-02-14T01:26:13;13.47;;;7.47;;
17283;SDS011;8760;52.248;20.952;2024-02-14T01:28:40;14.07;;;7.27;;
17283;SDS011;8760;52.248;20.952;2024-02-14T01:31:09;12.57;;;7.80;;
17283;SDS011;8760;52.248;20.952;2024-02-14T01:33:37;13.40;;;7.43;;
17283;SDS011;8760;52.248;20.952;2024-02-14T01:36:05;14.53;;;7.40;;
17283;SDS011;8760;52.248;20.952;2024-02-14T01:38:33;30.50;;;13.50;;
17283;SDS011;8760;52.248;20.952;2024-02-14T01:41:01;72.33;;;34.37;;
17283;SDS011;8760;52.248;20.952;2024-02-14T01:43:28;36.00;;;18.63;;
17283;SDS011;8760;52.248;20.952;2024-02-14T01:45:56;37.40;;;17.77;;
17283;SDS011;8760;52.248;20.952;2024-02-14T01:48:30;31.17;;;15.53;;
17283;SDS011;8760;52.248;20.952;2024-02-14T01:50:56;29.07;;;14.90;;
17283;SDS011;8760;52.248;20.952;2024-02-14T01:53:24;19.57;;;10.93;;
17283;SDS011;8760;52.248;20.952;2024-02-14T01:55:53;19.00;;;10.13;;
17283;SDS011;8760;52.248;20.952;2024-02-14T01:58:20;19.03;;;9.70;;
17283;SDS011;8760;52.248;20.952;2024-02-14T02:00:47;16.63;;;10.17;;
17283;SDS011;8760;52.248;20.952;2024-02-14T02:03:15;18.57;;;10.77;;
17283;SDS011;8760;52.248;20.952;2024-02-14T02:05:42;16.70;;;9.30;;
17283;SDS011;8760;52.248;20.952;2024-02-14T02:08:08;14.90;;;9.43;;
17283;SDS011;8760;52.248;20.952;2024-02-14T02:10:35;16.67;;;9.10;;
17283;SDS011;8760;52.248;20.952;2024-02-14T02:13:04;17.13;;;9.87;;
17283;SDS011;8760;52.248;20.952;2024-02-14T02:15:31;15.17;;;10.10;;
17283;SDS011;8760;52.248;20.952;2024-02-14T02:17:58;16.33;;;10.03;;
17283;SDS011;8760;52.248;20.952;2024-02-14T02:20:25;16.17;;;9.60;;
17283;SDS011;8760;52.248;20.952;2024-02-14T02:22:54;13.47;;;9.20;;
17283;SDS011;8760;52.248;20.952;2024-02-14T02:25:21;15.20;;;9.17;;
17283;SDS011;8760;52.248;20.952;2024-02-14T02:27:50;14.13;;;9.20;;
17283;SDS011;8760;52.248;20.952;2024-02-14T02:30:17;18.20;;;9.50;;
17283;SDS011;8760;52.248;20.952;2024-02-14T02:32:44;14.10;;;9.20;;
17283;SDS011;8760;52.248;20.952;2024-02-14T02:35:11;15.27;;;9.27;;
17283;SDS011;8760;52.248;20.952;2024-02-14T02:37:37;20.03;;;10.97;;
17283;SDS011;8760;52.248;20.952;2024-02-14T02:40:07;33.47;;;14.97;;
17283;SDS011;8760;52.248;20.952;2024-02-14T02:42:35;53.50;;;22.53;;
17283;SDS011;8760;52.248;20.952;2024-02-14T02:45:03;43.33;;;17.87;;
17283;SDS011;8760;52.248;20.952;2024-02-14T02:47:30;44.03;;;19.40;;
17283;SDS011;8760;52.248;20.952;2024-02-14T02:49:57;38.07;;;17.60;;
17283;SDS011;8760;52.248;20.952;2024-02-14T02:52:26;17.03;;;10.40;;
17283;SDS011;8760;52.248;20.952;2024-02-14T02:54:53;16.30;;;9.50;;
17283;SDS011;8760;52.248;20.952;2024-02-14T02:57:22;28.93;;;14.67;;
17283;SDS011;8760;52.248;20.952;2024-02-14T02:59:51;30.83;;;15.07;;
17283;SDS011;8760;52.248;20.952;2024-02-14T03:02:19;14.57;;;10.07;;
17283;SDS011;8760;52.248;20.952;2024-02-14T03:04:46;22.90;;;10.73;;
17283;SDS011;8760;52.248;20.952;2024-02-14T03:07:13;23.43;;;10.63;;
17283;SDS011;8760;52.248;20.952;2024-02-14T03:09:40;17.63;;;11.73;;
17283;SDS011;8760;52.248;20.952;2024-02-14T03:12:07;18.70;;;11.27;;
17283;SDS011;8760;52.248;20.952;2024-02-14T03:14:37;17.17;;;11.27;;
17283;SDS011;8760;52.248;20.952;2024-02-14T03:17:04;17.07;;;10.57;;
17283;SDS011;8760;52.248;20.952;2024-02-14T03:19:33;16.87;;;11.37;;
17283;SDS011;8760;52.248;20.952;2024-02-14T03:22:03;18.57;;;11.07;;
17283;SDS011;8760;52.248;20.952;2024-02-14T03:24:34;16.07;;;10.33;;
17283;SDS011;8760;52.248;20.952;2024-02-14T03:27:03;21.03;;;11.43;;
17283;SDS011;8760;52.248;20.952;2024-02-14T03:29:31;17.20;;;11.10;;
17283;SDS011;8760;52.248;20.952;2024-02-14T03:32:01;19.27;;;11.40;;
17283;SDS011;8760;52.248;20.952;2024-02-14T03:34:29;15.87;;;10.57;;
17283;SDS011;8760;52.248;20.952;2024-02-14T03:36:58;20.10;;;11.13;;
17283;SDS011;8760;52.248;20.952;2024-02-14T03:39:27;17.43;;;10.97;;
17283;SDS011;8760;52.248;20.952;2024-02-14T03:41:54;19.93;;;11.30;;
17283;SDS011;8760;52.248;20.952;2024-02-14T03:44:21;17.00;;;11.00;;
17283;SDS011;8760;52.248;20.952;2024-02-14T03:46:48;19.03;;;11.43;;
17283;SDS011;8760;52.248;20.952;2024-02-14T03:49:16;20.77;;;11.80;;
17283;SDS011;8760;52.248;20.952;2024-02-14T03:51:43;19.13;;;12.40;;
17283;SDS011;8760;52.248;20.952;2024-02-14T03:54:10;17.40;;;11.87;;
17283;SDS011;8760;52.248;20.952;2024-02-14T03:56:37;22.27;;;12.43;;
17283;SDS011;8760;52.248;20.952;2024-02-14T03:59:04;21.50;;;12.73;;
17283;SDS011;8760;52.248;20.952;2024-02-14T04:01:32;20.03;;;12.20;;
17283;SDS011;8760;52.248;20.952;2024-02-14T04:03:59;23.00;;;12.63;;
17283;SDS011;8760;52.248;20.952;2024-02-14T04:06:28;21.50;;;12.93;;
17283;SDS011;8760;52.248;20.952;2024-02-14T04:08:56;22.10;;;12.63;;
17283;SDS011;8760;52.248;20.952;2024-02-14T04:11:24;25.10;;;14.13;;
17283;SDS011;8760;52.248;20.952;2024-02-14T04:13:50;24.50;;;13.87;;
17283;SDS011;8760;52.248;20.952;2024-02-14T04:16:18;22.47;;;13.67;;
17283;SDS011;8760;52.248;20.952;2024-02-14T04:18:46;21.80;;;13.83;;
17283;SDS011;8760;52.248;20.952;2024-02-14T04:21:13;20.90;;;14.30;;
17283;SDS011;8760;52.248;20.952;2024-02-14T04:23:42;28.23;;;15.23;;
17283;SDS011;8760;52.248;20.952;2024-02-14T04:26:09;27.27;;;15.13;;
17283;SDS011;8760;52.248;20.952;2024-02-14T04:28:35;25.20;;;14.83;;
17283;SDS011;8760;52.248;20.952;2024-02-14T04:31:06;27.13;;;15.13;;
17283;SDS011;8760;52.248;20.952;2024-02-14T04:33:35;24.67;;;14.47;;
17283;SDS011;8760;52.248;20.952;2024-02-14T04:36:01;25.67;;;14.90;;
17283;SDS011;8760;52.248;20.952;2024-02-14T04:38:29;26.33;;;14.70;;
17283;SDS011;8760;52.248;20.952;2024-02-14T04:40:57;24.33;;;15.47;;
17283;SDS011;8760;52.248;20.952;2024-02-14T04:43:25;22.90;;;14.40;;
17283;SDS011;8760;52.248;20.952;2024-02-14T04:45:52;24.50;;;14.60;;
17283;SDS011;8760;52.248;20.952;2024-02-14T04:48:19;22.30;;;14.77;;
17283;SDS011;8760;52.248;20.952;2024-02-14T04:50:47;23.13;;;14.57;;
17283;SDS011;8760;52.248;20.952;2024-02-14T04:53:14;27.07;;;15.97;;
17283;SDS011;8760;52.248;20.952;2024-02-14T04:55:41;26.10;;;15.17;;
17283;SDS011;8760;52.248;20.952;2024-02-14T04:58:10;21.43;;;14.77;;
17283;SDS011;8760;52.248;20.952;2024-02-14T05:00:37;21.90;;;15.10;;
17283;SDS011;8760;52.248;20.952;2024-02-14T05:03:04;26.67;;;14.77;;
17283;SDS011;8760;52.248;20.952;2024-02-14T05:05:32;24.00;;;14.93;;
17283;SDS011;8760;52.248;20.952;2024-02-14T05:07:59;24.43;;;15.33;;
17283;SDS011;8760;52.248;20.952;2024-02-14T05:10:27;26.50;;;15.90;;
17283;SDS011;8760;52.248;20.952;2024-02-14T05:12:54;28.30;;;15.67;;
17283;SDS011;8760;52.248;20.952;2024-02-14T05:15:22;22.43;;;14.60;;
17283;SDS011;8760;52.248;20.952;2024-02-14T05:17:49;25.73;;;15.73;;
17283;SDS011;8760;52.248;20.952;2024-02-14T05:20:16;24.80;;;14.63;;
17283;SDS011;8760;52.248;20.952;2024-02-14T05:22:43;28.47;;;15.03;;
17283;SDS011;8760;52.248;20.952;2024-02-14T05:25:11;22.07;;;14.50;;
17283;SDS011;8760;52.248;20.952;2024-02-14T05:27:37;23.40;;;14.93;;
17283;SDS011;8760;52.248;20.952;2024-02-14T05:30:05;20.93;;;13.83;;
17283;SDS011;8760;52.248;20.952;2024-02-14T05:32:34;22.37;;;13.93;;
17283;SDS011;8760;52.248;20.952;2024-02-14T05:35:01;24.50;;;14.20;;
17283;SDS011;8760;52.248;20.952;2024-02-14T05:37:31;22.17;;;13.63;;
17283;SDS011;8760;52.248;20.952;2024-02-14T05:39:58;20.87;;;13.03;;
17283;SDS011;8760;52.248;20.952;2024-02-14T05:42:25;22.73;;;13.77;;
17283;SDS011;8760;52.248;20.952;2024-02-14T05:44:51;24.00;;;13.53;;
17283;SDS011;8760;52.248;20.952;2024-02-14T05:47:18;19.53;;;13.17;;
17283;SDS011;8760;52.248;20.952;2024-02-14T05:49:47;24.07;;;13.73;;
17283;SDS011;8760;52.248;20.952;2024-02-14T05:52:13;24.90;;;13.87;;
17283;SDS011;8760;52.248;20.952;2024-02-14T05:54:41;21.00;;;13.07;;
17283;SDS011;8760;52.248;20.952;2024-02-14T05:57:08;20.30;;;13.33;;
17283;SDS011;8760;52.248;20.952;2024-02-14T05:59:35;22.23;;;13.77;;
17283;SDS011;8760;52.248;20.952;2024-02-14T06:02:02;24.70;;;12.70;;
17283;SDS011;8760;52.248;20.952;2024-02-14T06:04:30;28.03;;;13.10;;
17283;SDS011;8760;52.248;20.952;2024-02-14T06:06:59;24.17;;;14.33;;
17283;SDS011;8760;52.248;20.952;2024-02-14T06:09:26;21.73;;;13.77;;
17283;SDS011;8760;52.248;20.952;2024-02-14T06:11:52;21.13;;;13.70;;
17283;SDS011;8760;52.248;20.952;2024-02-14T06:14:19;23.17;;;14.07;;
17283;SDS011;8760;52.248;20.952;2024-02-14T06:16:46;23.13;;;12.67;;
17283;SDS011;8760;52.248;20.952;2024-02-14T06:19:13;20.80;;;12.70;;
17283;SDS011;8760;52.248;20.952;2024-02-14T06:21:40;20.17;;;13.47;;
17283;SDS011;8760;52.248;20.952;2024-02-14T06:24:08;24.50;;;12.50;;
17283;SDS011;8760;52.248;20.952;2024-02-14T06:26:38;22.30;;;12.23;;
17283;SDS011;8760;52.248;20.952;2024-02-14T06:29:05;17.67;;;12.13;;
17283;SDS011;8760;52.248;20.952;2024-02-14T06:31:32;19.90;;;12.13;;
17283;SDS011;8760;52.248;20.952;2024-02-14T06:33:59;19.20;;;12.63;;
17283;SDS011;8760;52.248;20.952;2024-02-14T06:36:26;21.57;;;12.97;;
17283;SDS011;8760;52.248;20.952;2024-02-14T06:38:53;21.30;;;14.10;;
17283;SDS011;8760;52.248;20.952;2024-02-14T06:41:21;21.60;;;13.47;;
17283;SDS011;8760;52.248;20.952;2024-02-14T06:43:48;23.30;;;13.30;;
17283;SDS011;8760;52.248;20.952;2024-02-14T06:46:15;21.17;;;12.23;;
17283;SDS011;8760;52.248;20.952;2024-02-14T06:48:42;16.20;;;11.67;;
17283;SDS011;8760;52.248;20.952;2024-02-14T06:51:09;24.53;;;13.37;;
17283;SDS011;8760;52.248;20.952;2024-02-14T06:53:36;24.43;;;12.90;;
17283;SDS011;8760;52.248;20.952;2024-02-14T06:56:03;26.57;;;13.70;;
17283;SDS011;8760;52.248;20.952;2024-02-14T06:58:32;22.87;;;12.77;;
17283;SDS011;8760;52.248;20.952;2024-02-14T07:00:59;23.00;;;14.50;;
17283;SDS011;8760;52.248;20.952;2024-02-14T07:03:26;22.30;;;12.67;;
17283;SDS011;8760;52.248;20.952;2024-02-14T07:05:53;26.20;;;13.00;;
17283;SDS011;8760;52.248;20.952;2024-02-14T07:08:20;21.83;;;14.40;;
17283;SDS011;8760;52.248;20.952;2024-02-14T07:10:46;21.10;;;14.83;;
17283;SDS011;8760;52.248;20.952;2024-02-14T07:13:13;22.60;;;12.63;;
17283;SDS011;8760;52.248;20.952;2024-02-14T07:15:42;23.60;;;13.40;;
17283;SDS011;8760;52.248;20.952;2024-02-14T07:18:08;19.43;;;13.30;;
17283;SDS011;8760;52.248;20.952;2024-02-14T07:20:35;19.97;;;12.57;;
17283;SDS011;8760;52.248;20.952;2024-02-14T07:23:02;25.10;;;13.20;;
17283;SDS011;8760;52.248;20.952;2024-02-14T07:25:30;20.63;;;13.07;;
17283;SDS011;8760;52.248;20.952;2024-02-14T07:27:57;24.70;;;13.00;;
17283;SDS011;8760;52.248;20.952;2024-02-14T07:30:24;20.70;;;12.77;;
17283;SDS011;8760;52.248;20.952;2024-02-14T07:32:52;18.27;;;11.93;;
17283;SDS011;8760;52.248;20.952;2024-02-14T07:35:19;24.20;;;12.93;;
17283;SDS011;8760;52.248;20.952;2024-02-14T07:37:46;23.13;;;13.00;;
17283;SDS011;8760;52.248;20.952;2024-02-14T07:40:13;21.17;;;12.70;;
17283;SDS011;8760;52.248;20.952;2024-02-14T07:42:40;21.67;;;13.00;;
17283;SDS011;8760;52.248;20.952;2024-02-14T07:45:07;22.67;;;12.77;;
17283;SDS011;8760;52.248;20.952;2024-02-14T07:47:35;24.30;;;13.13;;
17283;SDS011;8760;52.248;20.952;2024-02-14T07:50:03;20.10;;;12.13;;
17283;SDS011;8760;52.248;20.952;2024-02-14T07:52:30;19.50;;;11.70;;
17283;SDS011;8760;52.248;20.952;2024-02-14T07:54:57;16.33;;;11.70;;
17283;SDS011;8760;52.248;20.952;2024-02-14T07:57:24;21.07;;;12.13;;
17283;SDS011;8760;52.248;20.952;2024-02-14T07:59:52;18.60;;;11.97;;
17283;SDS011;8760;52.248;20.952;2024-02-14T08:02:19;17.27;;;11.53;;
17283;SDS011;8760;52.248;20.952;2024-02-14T08:04:46;18.43;;;11.07;;
17283;SDS011;8760;52.248;20.952;2024-02-14T08:07:14;16.27;;;11.70;;
17283;SDS011;8760;52.248;20.952;2024-02-14T08:09:41;18.33;;;11.10;;
17283;SDS011;8760;52.248;20.952;2024-02-14T08:12:08;18.43;;;11.10;;
17283;SDS011;8760;52.248;20.952;2024-02-14T08:14:35;20.83;;;11.70;;
17283;SDS011;8760;52.248;20.952;2024-02-14T08:17:02;15.97;;;10.63;;
17283;SDS011;8760;52.248;20.952;2024-02-14T08:19:29;17.50;;;11.03;;
17283;SDS011;8760;52.248;20.952;2024-02-14T08:21:56;19.97;;;10.83;;
17283;SDS011;8760;52.248;20.952;2024-02-14T08:24:26;24.47;;;10.77;;
17283;SDS011;8760;52.248;20.952;2024-02-14T08:26:54;20.20;;;11.10;;
17283;SDS011;8760;52.248;20.952;2024-02-14T08:29:21;18.67;;;10.73;;
17283;SDS011;8760;52.248;20.952;2024-02-14T08:31:48;20.53;;;10.43;;
17283;SDS011;8760;52.248;20.952;2024-02-14T08:34:15;19.13;;;10.47;;
17283;SDS011;8760;52.248;20.952;2024-02-14T08:36:42;15.57;;;9.73;;
17283;SDS011;8760;52.248;20.952;2024-02-14T08:39:09;17.03;;;9.10;;
17283;SDS011;8760;52.248;20.952;2024-02-14T08:41:39;16.83;;;9.67;;
17283;SDS011;8760;52.248;20.952;2024-02-14T08:44:08;13.80;;;9.07;;
17283;SDS011;8760;52.248;20.952;2024-02-14T08:46:35;17.27;;;10.05;;
17283;SDS011;8760;52.248;20.952;2024-02-14T08:49:02;1999.90;;;999.90;;
17283;SDS011;8760;52.248;20.952;2024-02-14T08:51:33;1999.90;;;999.90;;
17283;SDS011;8760;52.248;20.952;2024-02-14T08:54:00;1999.90;;;999.90;;
17283;SDS011;8760;52.248;20.952;2024-02-14T08:56:30;1999.90;;;999.90;;
17283;SDS011;8760;52.248;20.952;2024-02-14T08:59:00;308.08;;;285.13;;
17283;SDS011;8760;52.248;20.952;2024-02-14T09:01:27;48.63;;;44.22;;
17283;SDS011;8760;52.248;20.952;2024-02-14T09:03:54;34.70;;;29.70;;
17283;SDS011;8760;52.248;20.952;2024-02-14T09:06:21;11.63;;;9.55;;
17283;SDS011;8760;52.248;20.952;2024-02-14T09:08:48;14.18;;;8.65;;
17283;SDS011;8760;52.248;20.952;2024-02-14T09:11:15;12.48;;;7.55;;
17283;SDS011;8760;52.248;20.952;2024-02-14T09:13:42;16.83;;;9.23;;
17283;SDS011;8760;52.248;20.952;2024-02-14T09:16:10;13.57;;;8.45;;
17283;SDS011;8760;52.248;20.952;2024-02-14T09:18:39;12.13;;;8.70;;
17283;SDS011;8760;52.248;20.952;2024-02-14T09:21:06;10.43;;;7.78;;
17283;SDS011;8760;52.248;20.952;2024-02-14T09:23:33;9.98;;;7.90;;
17283;SDS011;8760;52.248;20.952;2024-02-14T09:26:04;12.93;;;7.93;;
17283;SDS011;8760;52.248;20.952;2024-02-14T09:28:31;14.88;;;7.82;;
17283;SDS011;8760;52.248;20.952;2024-02-14T09:30:58;13.18;;;7.57;;
17283;SDS011;8760;52.248;20.952;2024-02-14T09:33:26;11.55;;;7.78;;
17283;SDS011;8760;52.248;20.952;2024-02-14T09:35:53;13.32;;;7.63;;
17283;SDS011;8760;52.248;20.952;2024-02-14T09:38:20;14.13;;;7.70;;
17283;SDS011;8760;52.248;20.952;2024-02-14T09:40:47;11.32;;;7.70;;
17283;SDS011;8760;52.248;20.952;2024-02-14T09:43:17;10.85;;;6.20;;
17283;SDS011;8760;52.248;20.952;2024-02-14T09:45:52;8.95;;;6.50;;
17283;SDS011;8760;52.248;20.952;2024-02-14T09:48:19;9.55;;;6.25;;
17283;SDS011;8760;52.248;20.952;2024-02-14T09:50:49;9.32;;;6.13;;
17283;SDS011;8760;52.248;20.952;2024-02-14T09:53:18;11.20;;;6.38;;
17283;SDS011;8760;52.248;20.952;2024-02-14T09:55:46;6.68;;;4.88;;
17283;SDS011;8760;52.248;20.952;2024-02-14T09:58:15;6.25;;;4.22;;
17283;SDS011;8760;52.248;20.952;2024-02-14T10:00:43;6.57;;;4.68;;
17283;SDS011;8760;52.248;20.952;2024-02-14T10:03:10;9.23;;;4.57;;
17283;SDS011;8760;52.248;20.952;2024-02-14T10:05:37;6.57;;;4.35;;
17283;SDS011;8760;52.248;20.952;2024-02-14T10:08:06;6.18;;;4.10;;
17283;SDS011;8760;52.248;20.952;2024-02-14T10:10:34;5.88;;;4.10;;
17283;SDS011;8760;52.248;20.952;2024-02-14T10:13:03;5.88;;;4.00;;
17283;SDS011;8760;52.248;20.952;2024-02-14T10:15:30;5.50;;;3.47;;
17283;SDS011;8760;52.248;20.952;2024-02-14T10:17:57;7.85;;;3.80;;
17283;SDS011;8760;52.248;20.952;2024-02-14T10:20:25;4.55;;;3.55;;
17283;SDS011;8760;52.248;20.952;2024-02-14T10:22:59;4.70;;;3.38;;
17283;SDS011;8760;52.248;20.952;2024-02-14T10:25:28;5.05;;;3.17;;
17283;SDS011;8760;52.248;20.952;2024-02-14T10:27:56;5.47;;;3.72;;
17283;SDS011;8760;52.248;20.952;2024-02-14T10:30:23;9.40;;;3.88;;
17283;SDS011;8760;52.248;20.952;2024-02-14T10:32:50;5.35;;;3.50;;
17283;SDS011;8760;52.248;20.952;2024-02-14T10:35:17;7.07;;;3.30;;
17283;SDS011;8760;52.248;20.952;2024-02-14T10:37:46;8.68;;;3.42;;
17283;SDS011;8760;52.248;20.952;2024-02-14T10:40:15;4.25;;;2.72;;
17283;SDS011;8760;52.248;20.952;2024-02-14T10:42:43;8.88;;;3.08;;
17283;SDS011;8760;52.248;20.952;2024-02-14T10:45:10;6.28;;;2.60;;
17283;SDS011;8760;52.248;20.952;2024-02-14T10:47:39;6.07;;;3.38;;
17283;SDS011;8760;52.248;20.952;2024-02-14T10:50:09;6.35;;;2.78;;
17283;SDS011;8760;52.248;20.952;2024-02-14T10:52:40;6.28;;;2.90;;
17283;SDS011;8760;52.248;20.952;2024-02-14T10:55:08;6.65;;;3.20;;
17283;SDS011;8760;52.248;20.952;2024-02-14T10:57:37;6.18;;;2.83;;
17283;SDS011;8760;52.248;20.952;2024-02-14T11:00:07;6.50;;;3.30;;
17283;SDS011;8760;52.248;20.952;2024-02-14T11:02:38;5.28;;;2.55;;
17283;SDS011;8760;52.248;20.952;2024-02-14T11:05:11;4.25;;;2.80;;
17283;SDS011;8760;52.248;20.952;2024-02-14T11:07:43;5.25;;;2.50;;
17283;SDS011;8760;52.248;20.952;2024-02-14T11:10:13;8.98;;;2.80;;
17283;SDS011;8760;52.248;20.952;2024-02-14T11:12:41;5.72;;;2.90;;
17283;SDS011;8760;52.248;20.952;2024-02-14T11:15:12;5.18;;;2.40;;
17283;SDS011;8760;52.248;20.952;2024-02-14T11:17:42;4.38;;;2.60;;
17283;SDS011;8760;52.248;20.952;2024-02-14T11:20:14;4.32;;;2.35;;
17283;SDS011;8760;52.248;20.952;2024-02-14T11:22:49;5.38;;;3.03;;
17283;SDS011;8760;52.248;20.952;2024-02-14T11:25:20;6.60;;;2.92;;
17283;SDS011;8760;52.248;20.952;2024-02-14T11:27:49;6.07;;;2.67;;
17283;SDS011;8760;52.248;20.952;2024-02-14T11:30:27;4.20;;;2.35;;
17283;SDS011;8760;52.248;20.952;2024-02-14T11:33:06;2.75;;;2.47;;
17283;SDS011;8760;52.248;20.952;2024-02-14T11:35:38;3.92;;;2.90;;
17283;SDS011;8760;52.248;20.952;2024-02-14T11:38:06;5.45;;;2.40;;
17283;SDS011;8760;52.248;20.952;2024-02-14T11:40:33;4.47;;;2.50;;
17283;SDS011;8760;52.248;20.952;2024-02-14T11:43:00;7.35;;;2.22;;
17283;SDS011;8760;52.248;20.952;2024-02-14T11:45:28;2.60;;;1.90;;
17283;SDS011;8760;52.248;20.952;2024-02-14T11:47:55;3.97;;;2.20;;
17283;SDS011;8760;52.248;20.952;2024-02-14T11:50:22;3.17;;;1.88;;
17283;SDS011;8760;52.248;20.952;2024-02-14T11:52:50;4.75;;;2.28;;
17283;SDS011;8760;52.248;20.952;2024-02-14T11:55:18;5.35;;;1.98;;
17283;SDS011;8760;52.248;20.952;2024-02-14T11:57:53;2.78;;;2.17;;
17283;SDS011;8760;52.248;20.952;2024-02-14T12:00:20;4.10;;;2.50;;
17283;SDS011;8760;52.248;20.952;2024-02-14T12:02:48;3.05;;;2.08;;
17283;SDS011;8760;52.248;20.952;2024-02-14T12:05:16;4.90;;;2.03;;
17283;SDS011;8760;52.248;20.952;2024-02-14T12:07:44;5.25;;;2.30;;
17283;SDS011;8760;52.248;20.952;2024-02-14T12:10:11;4.85;;;2.58;;
17283;SDS011;8760;52.248;20.952;2024-02-14T12:12:38;2.88;;;2.20;;
17283;SDS011;8760;52.248;20.952;2024-02-14T12:15:06;4.45;;;2.20;;
17283;SDS011;8760;52.248;20.952;2024-02-14T12:17:36;4.95;;;2.20;;
17283;SDS011;8760;52.248;20.952;2024-02-14T12:20:10;4.13;;;2.25;;
17283;SDS011;8760;52.248;20.952;2024-02-14T12:22:39;2.67;;;2.13;;
17283;SDS011;8760;52.248;20.952;2024-02-14T12:25:06;7.97;;;2.58;;
17283;SDS011;8760;52.248;20.952;2024-02-14T12:27:36;3.45;;;2.03;;
17283;SDS011;8760;52.248;20.952;2024-02-14T12:30:05;4.40;;;2.30;;
17283;SDS011;8760;52.248;20.952;2024-02-14T12:32:33;3.00;;;2.00;;
17283;SDS011;8760;52.248;20.952;2024-02-14T12:34:59;4.13;;;2.15;;
17283;SDS011;8760;52.248;20.952;2024-02-14T12:37:27;2.40;;;2.00;;
17283;SDS011;8760;52.248;20.952;2024-02-14T12:39:54;7.03;;;2.40;;
17283;SDS011;8760;52.248;20.952;2024-02-14T12:42:21;3.72;;;2.40;;
17283;SDS011;8760;52.248;20.952;2024-02-14T12:44:51;6.22;;;2.20;;
17283;SDS011;8760;52.248;20.952;2024-02-14T12:47:19;3.47;;;2.30;;
17283;SDS011;8760;52.248;20.952;2024-02-14T12:49:47;4.05;;;2.50;;
17283;SDS011;8760;52.248;20.952;2024-02-14T12:52:14;4.82;;;2.40;;
17283;SDS011;8760;52.248;20.952;2024-02-14T12:54:44;5.53;;;2.40;;
17283;SDS011;8760;52.248;20.952;2024-02-14T12:57:11;3.72;;;2.20;;
17283;SDS011;8760;52.248;20.952;2024-02-14T12:59:38;4.05;;;2.80;;
17283;SDS011;8760;52.248;20.952;2024-02-14T13:02:05;4.75;;;3.00;;
17283;SDS011;8760;52.248;20.952;2024-02-14T13:04:32;5.20;;;2.30;;
17283;SDS011;8760;52.248;20.952;2024-02-14T13:07:00;5.43;;;2.30;;
17283;SDS011;8760;52.248;20.952;2024-02-14T13:09:27;4.93;;;2.53;;
17283;SDS011;8760;52.248;20.952;2024-02-14T13:11:55;5.70;;;2.60;;
17283;SDS011;8760;52.248;20.952;2024-02-14T13:14:22;5.25;;;3.08;;
17283;SDS011;8760;52.248;20.952;2024-02-14T13:16:50;4.40;;;2.40;;
17283;SDS011;8760;52.248;20.952;2024-02-14T13:19:16;2.55;;;2.08;;
17283;SDS011;8760;52.248;20.952;2024-02-14T13:21:44;7.05;;;2.63;;
17283;SDS011;8760;52.248;20.952;2024-02-14T13:24:11;5.93;;;2.70;;
17283;SDS011;8760;52.248;20.952;2024-02-14T13:26:39;5.72;;;2.55;;
17283;SDS011;8760;52.248;20.952;2024-02-14T13:29:07;3.28;;;2.30;;
17283;SDS011;8760;52.248;20.952;2024-02-14T13:31:34;5.53;;;2.83;;
17283;SDS011;8760;52.248;20.952;2024-02-14T13:34:01;4.28;;;2.75;;
17283;SDS011;8760;52.248;20.952;2024-02-14T13:36:29;3.83;;;2.60;;
17283;SDS011;8760;52.248;20.952;2024-02-14T13:38:57;5.75;;;2.50;;
17283;SDS011;8760;52.248;20.952;2024-02-14T13:41:25;5.53;;;2.63;;
17283;SDS011;8760;52.248;20.952;2024-02-14T13:43:52;5.78;;;2.40;;
17283;SDS011;8760;52.248;20.952;2024-02-14T13:46:20;5.53;;;2.78;;
17283;SDS011;8760;52.248;20.952;2024-02-14T13:48:47;10.00;;;2.80;;
17283;SDS011;8760;52.248;20.952;2024-02-14T13:51:14;3.92;;;2.38;;
17283;SDS011;8760;52.248;20.952;2024-02-14T13:53:41;4.15;;;2.45;;
17283;SDS011;8760;52.248;20.952;2024-02-14T13:56:08;6.13;;;2.72;;
17283;SDS011;8760;52.248;20.952;2024-02-14T13:58:36;7.13;;;2.70;;
17283;SDS011;8760;52.248;20.952;2024-02-14T14:01:04;5.53;;;2.80;;
17283;SDS011;8760;52.248;20.952;2024-02-14T14:03:33;6.03;;;2.80;;
17283;SDS011;8760;52.248;20.952;2024-02-14T14:06:02;3.60;;;2.20;;
17283;SDS011;8760;52.248;20.952;2024-02-14T14:08:30;12.10;;;3.47;;
17283;SDS011;8760;52.248;20.952;2024-02-14T14:10:57;4.40;;;2.33;;
17283;SDS011;8760;52.248;20.952;2024-02-14T14:13:24;4.60;;;2.22;;
17283;SDS011;8760;52.248;20.952;2024-02-14T14:15:54;3.95;;;2.10;;
17283;SDS011;8760;52.248;20.952;2024-02-14T14:18:22;3.72;;;2.05;;
17283;SDS011;8760;52.248;20.952;2024-02-14T14:20:50;4.72;;;2.58;;
17283;SDS011;8760;52.248;20.952;2024-02-14T14:23:17;7.20;;;2.60;;
17283;SDS011;8760;52.248;20.952;2024-02-14T14:25:44;6.18;;;2.53;;
17283;SDS011;8760;52.248;20.952;2024-02-14T14:28:11;6.75;;;2.42;;
17283;SDS011;8760;52.248;20.952;2024-02-14T14:30:39;4.80;;;2.50;;
17283;SDS011;8760;52.248;20.952;2024-02-14T14:33:06;5.55;;;2.40;;
17283;SDS011;8760;52.248;20.952;2024-02-14T14:35:34;3.65;;;2.30;;